createdAt,value
2022-09-22T00:01:51.167Z,23.31
2022-09-22T00:16:53.595Z,22.91
2022-09-22T00:31:55.861Z,22.31
2022-09-22T00:46:58.134Z,22.06
2022-09-22T01:02:00.460Z,21.53
2022-09-22T01:17:03.932Z,21.49
2022-09-22T01:32:06.397Z,20.8
2022-09-22T01:47:08.872Z,20.13
2022-09-22T02:02:11.584Z,19.45
2022-09-22T02:17:14.154Z,19.87
2022-09-22T02:32:16.661Z,18.59
2022-09-22T02:47:19.117Z,18.68
2022-09-22T03:02:21.379Z,18.15
2022-09-22T03:17:23.898Z,17.59
2022-09-22T03:32:26.144Z,17.24
2022-09-22T03:47:28.353Z,16.93
2022-09-22T04:02:30.658Z,16.64
2022-09-22T04:17:32.941Z,16.09
2022-09-22T04:32:35.220Z,15.64
2022-09-22T04:47:37.456Z,15.63
2022-09-22T05:02:39.648Z,15.44
2022-09-22T05:17:41.901Z,14.77
2022-09-22T05:32:44.135Z,14.83
2022-09-22T05:47:46.349Z,14.8
2022-09-22T06:02:48.868Z,14.21
2022-09-22T06:17:51.090Z,14.65
2022-09-22T06:32:53.352Z,14.13
2022-09-22T06:47:55.611Z,14.18
2022-09-22T07:02:57.826Z,14.53
2022-09-22T07:18:00.077Z,14.02
2022-09-22T07:33:02.357Z,14.16
2022-09-22T07:48:04.787Z,13.66
2022-09-22T08:03:06.989Z,13.93
2022-09-22T08:18:09.242Z,13.84
2022-09-22T08:33:11.489Z,13.35
2022-09-22T08:48:13.728Z,13.31
2022-09-22T09:03:15.993Z,13.43
2022-09-22T09:18:18.240Z,13.39
2022-09-22T09:33:20.427Z,13.4
2022-09-22T09:48:22.638Z,13.14
2022-09-22T10:03:24.953Z,13.29
2022-09-22T10:18:27.301Z,13.41
2022-09-22T10:33:29.665Z,13.2
2022-09-22T10:48:31.904Z,12.74
2022-09-22T11:03:34.111Z,13.08
2022-09-22T11:18:39.528Z,12.82
2022-09-22T11:33:42.112Z,12.92
2022-09-22T11:48:44.340Z,13.04
2022-09-22T12:03:46.636Z,13.03
2022-09-22T12:18:48.931Z,13.01
2022-09-22T12:33:51.279Z,12.61
2022-09-22T12:48:53.665Z,12.9
2022-09-22T13:03:56.052Z,13.19
2022-09-22T13:18:58.285Z,13.02
2022-09-22T13:34:00.731Z,12.97
2022-09-22T13:49:02.926Z,13.01
2022-09-22T14:04:05.369Z,12.97
2022-09-22T14:19:07.726Z,13.04
2022-09-22T14:34:09.957Z,13.04
2022-09-22T14:49:12.177Z,13.21
2022-09-22T15:04:14.467Z,13.24
2022-09-22T15:19:16.481Z,13.53
2022-09-22T15:34:18.707Z,13.65
2022-09-22T15:49:21.141Z,14.21
2022-09-22T16:04:23.524Z,14.42
2022-09-22T16:19:25.741Z,14.83
2022-09-22T16:34:27.950Z,14.52
2022-09-22T16:49:30.154Z,14.6
2022-09-22T17:04:32.533Z,14.8
2022-09-22T17:19:34.749Z,15.69
2022-09-22T17:34:36.969Z,16.09
2022-09-22T17:49:39.211Z,16.64
2022-09-22T18:04:41.436Z,17.23
2022-09-22T18:19:43.638Z,17.49
2022-09-22T18:34:45.850Z,17.68
2022-09-22T18:49:48.118Z,18.1
2022-09-22T19:04:50.428Z,18.52
2022-09-22T19:19:52.769Z,19.39
2022-09-22T19:34:55.000Z,20.48
2022-09-22T19:49:57.241Z,20.53
2022-09-22T20:04:59.411Z,20.9
2022-09-22T20:20:01.638Z,21.33
2022-09-22T20:35:03.850Z,21.57
2022-09-22T20:50:06.095Z,22.05
2022-09-22T21:05:08.329Z,22.03
2022-09-22T21:20:10.576Z,22.23
2022-09-22T21:35:12.812Z,22.27
2022-09-22T21:50:15.039Z,22.51
2022-09-22T22:05:17.272Z,22.53
2022-09-22T22:20:19.530Z,22.81
2022-09-22T22:35:21.792Z,23.05
2022-09-22T22:50:23.995Z,22.75
2022-09-22T23:05:26.255Z,22.93
2022-09-22T23:20:28.518Z,22.65
2022-09-22T23:35:30.865Z,22.49
2022-09-22T23:50:33.113Z,22.68
